Green Valley, West Virginia
Current Conditions -  °F | °C
As of 10:15 AM on Friday 31 Oct 2014 (Local Time) from KBLF Reporting Station
Overcast Overcast  
Wind Chill: 42°   Ceiling: 2600
Heat Index: 45°   Visibility: 10mi
Dew Point: 35°   Wind: 6mph
Humidity: 68%   Direction: 240°WSW
Pressure: 29.93"   Gusts: NA
Location:  37.2994°N, 81.226°W
Report Text: KBLF 311415Z AUTO 24005KT 10SM BKN026 OVC030 07/02 A2993 RMK AO2 T00720017
Loading
Personal Weather Stations






























Interactive Weather Map
Tropical Storm Tracking
New forecast layout! Learn more

10-Day Weather Forecast

Advertisements
Track Severe Weather on mobile